D/T METAR WX W/DIR W/SPE G/SPE TEMP DEWP
16/01/19 02:50 EGVP 160250Z AUTO 21009KT 9999 // BKN007/// SCT024/// 08/07 Q1011 SSW (210°) 10.4mph 8°C 7°C
16/01/19 01:50 EGVP 160150Z AUTO 22011KT 9999 // BKN010/// BKN027/// 08/07 Q1011 SW (220°) 12.7mph 8°C 7°C
16/01/19 00:50 EGVP 160050Z AUTO 22010KT 9999 // BKN009/// BKN031/// 08/06 Q1012 SW (220°) 11.5mph 8°C 6°C
15/01/19 23:50 EGVP 152350Z AUTO 21007KT 9999 // FEW009/// BKN033/// BKN130/// 08/06 Q1013 SSW (210°) 8.1mph 8°C 6°C
15/01/19 22:50 EGVP 152250Z AUTO 21009KT 9999 // BKN030/// 08/07 Q1014 SSW (210°) 10.4mph 8°C 7°C
15/01/19 21:50 EGVP 152150Z 21010KT 9999 BKN028 BKN033 08/06 Q1015 BLU TEMPO BKN024 WHT SSW (210°) 11.5mph 8°C 6°C
15/01/19 20:50 EGVP 152050Z 21007KT 9999 BKN032 BKN170 07/06 Q1015 BLU NOSIG SSW (210°) 8.1mph 7°C 6°C
15/01/19 19:50 EGVP 151950Z 22006KT 9999 FEW010 BKN028 BKN170 08/05 Q1016 BLU TEMPO SCT024 WHT SW (220°) 6.9mph 8°C 5°C
15/01/19 18:50 EGVP 151850Z 22008KT 9999 FEW010 BKN028 08/06 Q1016 BLU NOSIG SW (220°) 9.2mph 8°C 6°C
15/01/19 17:50 EGVP 151750Z 21009KT 9999 FEW025 OVC028 08/06 Q1017 BLU TEMPO SCT022 WHT SSW (210°) 10.4mph 8°C 6°C
15/01/19 16:50 EGVP 151650Z 22008KT 9999 FEW025 OVC028 09/06 Q1017 BLU TEMPO BKN022 WHT SW (220°) 9.2mph 9°C 6°C
15/01/19 15:50 EGVP 151550Z 23010KT 9999 BKN028 09/05 Q1017 BLU TEMPO BKN024 WHT SW (230°) 11.5mph 9°C 5°C
15/01/19 14:50 EGVP 151450Z 23009KT 9999 BKN024 BKN030 09/06 Q1018 WHT TEMPO BKN025 BLU SW (230°) 10.4mph 9°C 6°C
15/01/19 13:50 EGVP 151350Z 23009KT 9999 SCT018 BKN030 09/06 Q1018 WHT NOSIG SW (230°) 10.4mph 9°C 6°C
15/01/19 12:50 EGVP 151250Z 24010KT 9999 FEW012 OVC018 09/06 Q1019 WHT NOSIG WSW (240°) 11.5mph 9°C 6°C
15/01/19 11:50 EGVP 151150Z 22010KT 9999 FEW012 BKN018 09/06 Q1020 WHT NOSIG SW (220°) 11.5mph 9°C 6°C
15/01/19 10:50 EGVP 151050Z 21009KT 9999 FEW010 BKN018 08/06 Q1021 WHT NOSIG SSW (210°) 10.4mph 8°C 6°C
15/01/19 09:50 EGVP 150950Z 21009KT 9999 FEW010 BKN018 07/06 Q1021 WHT TEMPO BKN025 BLU SSW (210°) 10.4mph 7°C 6°C
15/01/19 08:50 EGVP 150850Z 22007KT 9999 FEW018 BKN022 06/05 Q1021 WHT TEMPO BKN025 BLU SW (220°) 8.1mph 6°C 5°C
15/01/19 08:32 EGVP 150832Z 22007KT 9999 BKN022 06/05 Q1021 WHT TEMPO BKN025 BLU SW (220°) 8.1mph 6°C 5°C
15/01/19 07:50 EGVP 150750Z 21006KT 9999 FEW012 BKN025 06/05 Q1021 BLU TEMPO BKN020 WHT SSW (210°) 6.9mph 6°C 5°C
15/01/19 06:50 EGVP 150650Z 22006KT 9999 OVC022 06/04 Q1021 WHT SW (220°) 6.9mph 6°C 4°C
15/01/19 05:50 EGVP 150550Z 22005KT 9999 OVC022 05/04 Q1021 WHT SW (220°) 5.8mph 5°C 4°C
15/01/19 04:50 EGVP 150450Z AUTO 17006KT 9999 // OVC019/// 03/02 Q1021 S (170°) 6.9mph 3°C 2°C
15/01/19 03:50 EGVP 150350Z AUTO 25001KT 9999 // BKN021/// 03/01 Q1022 WSW (250°) 1.2mph 3°C 1°C
15/01/19 02:50 EGVP 150250Z AUTO 24005KT 9999 // NCD 02/00 Q1022 WSW (240°) 5.8mph 2°C 0°C
15/01/19 01:50 EGVP 150150Z AUTO 21004KT 9999 // NCD 03/02 Q1023 SSW (210°) 4.6mph 3°C 2°C
15/01/19 00:50 EGVP 150050Z AUTO 15002KT 9999 // NCD 02/01 Q1023 SSE (150°) 2.3mph 2°C 1°C
14/01/19 23:50 EGVP 142350Z AUTO 26003KT 9999 // NCD 02/00 Q1023 W (260°) 3.5mph 2°C 0°C
14/01/19 22:50 EGVP 142250Z 26004KT 9999 FEW040 04/02 Q1023 BLU NOSIG W (260°) 4.6mph 4°C 2°C
14/01/19 21:50 EGVP 142150Z 27006KT 9999 FEW040 05/02 Q1023 BLU NOSIG W (270°) 6.9mph 5°C 2°C
14/01/19 20:50 EGVP 142050Z 27006KT 9999 BKN040 06/02 Q1023 BLU NOSIG W (270°) 6.9mph 6°C 2°C
14/01/19 19:50 EGVP 141950Z AUTO 27006KT 9999 // BKN041/// 06/02 Q1024 W (270°) 6.9mph 6°C 2°C
14/01/19 18:50 EGVP 141850Z 27004KT 9999 BKN036 07/02 Q1023 BLU NOSIG W (270°) 4.6mph 7°C 2°C
14/01/19 17:50 EGVP 141750Z 25003KT 9999 BKN040 07/02 Q1023 BLU NOSIG WSW (250°) 3.5mph 7°C 2°C
14/01/19 16:50 EGVP 141650Z 31006KT 9999 BKN040 08/01 Q1023 BLU NOSIG NW (310°) 6.9mph 8°C 1°C
14/01/19 15:50 EGVP 141550Z 30005KT 9999 BKN038 08/02 Q1023 BLU NOSIG WNW (300°) 5.8mph 8°C 2°C
14/01/19 14:50 EGVP 141450Z 31009KT 9999 BKN038 09/02 Q1022 BLU NOSIG NW (310°) 10.4mph 9°C 2°C
14/01/19 13:50 EGVP 141350Z 30010KT 9999 BKN040 09/02 Q1022 BLU NOSIG WNW (300°) 11.5mph 9°C 2°C
14/01/19 12:50 EGVP 141250Z 30010KT 9999 FEW026 BKN040 09/02 Q1022 BLU NOSIG WNW (300°) 11.5mph 9°C 2°C
14/01/19 11:50 EGVP 141150Z 30010KT 9999 FEW025 BKN040 08/02 Q1022 BLU NOSIG WNW (300°) 11.5mph 8°C 2°C
14/01/19 10:50 EGVP 141050Z 29009KT 9999 BKN038 08/03 Q1022 BLU NOSIG WNW (290°) 10.4mph 8°C 3°C
14/01/19 09:50 EGVP 140950Z 29009KT 9999 BKN038 07/03 Q1022 BLU NOSIG WNW (290°) 10.4mph 7°C 3°C
14/01/19 08:50 EGVP 140850Z 29009KT 9999 BKN038 06/02 Q1021 BLU NOSIG WNW (290°) 10.4mph 6°C 2°C
14/01/19 07:50 EGVP 140750Z 29009KT 9999 BKN035 06/02 Q1020 BLU NOSIG WNW (290°) 10.4mph 6°C 2°C
14/01/19 06:50 EGVP 140650Z 28010KT 9999 FEW030 05/01 Q1019 BLU W (280°) 11.5mph 5°C 1°C
14/01/19 05:50 EGVP 140550Z 28008KT 9999 FEW040 06/02 Q1019 BLU W (280°) 9.2mph 6°C 2°C
14/01/19 04:50 EGVP 140450Z AUTO 28009KT 9999 // SCT044/// 06/01 Q1018 W (280°) 10.4mph 6°C 1°C
14/01/19 03:50 EGVP 140350Z AUTO 28008KT 9999 // BKN044/// 06/02 Q1018 W (280°) 9.2mph 6°C 2°C
14/01/19 02:50 EGVP 140250Z AUTO 27008KT 9999 // NCD 06/02 Q1018 W (270°) 9.2mph 6°C 2°C
14/01/19 01:50 EGVP 140150Z AUTO 31012KT 9999 // NCD 07/02 Q1017 NW (310°) 13.8mph 7°C 2°C
14/01/19 00:50 EGVP 140050Z AUTO 30009KT 9999 // SCT045/// 07/03 Q1016 WNW (300°) 10.4mph 7°C 3°C
13/01/19 23:50 EGVP 132350Z AUTO 28008KT 9999 // FEW045/// 07/02 Q1016 W (280°) 9.2mph 7°C 2°C
13/01/19 22:50 EGVP 132250Z AUTO 32012G22KT 9999 // NCD 08/01 Q1015 NW (320°) 13.8mph 25.3mph 8°C 1°C
13/01/19 21:50 EGVP 132150Z AUTO 31019KT 9999 // NCD 09/02 Q1015 NW (310°) 21.9mph 9°C 2°C
13/01/19 20:50 EGVP 132050Z AUTO 31015G27KT 9999 // FEW042/// 10/04 Q1014 NW (310°) 17.3mph 31.1mph 10°C 4°C
13/01/19 19:50 EGVP 131950Z AUTO 29015KT 9999 // BKN041/// 10/06 Q1013 WNW (290°) 17.3mph 10°C 6°C
13/01/19 18:50 EGVP 131850Z AUTO 27008KT 9999 // BKN037/// 10/07 Q1013 W (270°) 9.2mph 10°C 7°C
13/01/19 17:50 EGVP 131750Z AUTO 27008KT 9999 // SCT013/// BKN036/// 10/08 Q1013 W (270°) 9.2mph 10°C 8°C
13/01/19 16:50 EGVP 131650Z AUTO 28013KT 9999 // BKN009/// SCT018/// 10/08 Q1013 W (280°) 15.0mph 10°C 8°C
13/01/19 15:50 EGVP 131550Z AUTO 27015KT 9999 // OVC009/// 10/08 Q1013 W (270°) 17.3mph 10°C 8°C
13/01/19 14:50 EGVP 131450Z AUTO 27016KT 9999 // OVC013/// 10/08 Q1013 W (270°) 18.4mph 10°C 8°C
13/01/19 13:50 EGVP 131350Z AUTO 28016G26KT 9999 // OVC014/// 10/07 Q1014 W (280°) 18.4mph 29.9mph 10°C 7°C
13/01/19 12:50 EGVP 131250Z AUTO 27012KT 9999 // OVC016/// 10/07 Q1015 W (270°) 13.8mph 10°C 7°C
13/01/19 11:50 EGVP 131150Z AUTO 28017G27KT 9999 // BKN020/// BKN130/// 10/07 Q1015 W (280°) 19.6mph 31.1mph 10°C 7°C
13/01/19 10:50 EGVP 131050Z AUTO 29015KT 9999 // FEW016/// OVC120/// 10/07 Q1016 WNW (290°) 17.3mph 10°C 7°C
13/01/19 09:50 EGVP 130950Z AUTO 29016KT 9999 // OVC130/// 09/06 Q1016 WNW (290°) 18.4mph 9°C 6°C
13/01/19 08:50 EGVP 130850Z AUTO 29020KT 9999 // FEW015/// BKN120/// 09/06 Q1017 WNW (290°) 23.0mph 9°C 6°C
13/01/19 07:50 EGVP 130750Z AUTO 28019KT 9999 // FEW120/// BKN190/// 09/07 Q1017 W (280°) 21.9mph 9°C 7°C
13/01/19 06:50 EGVP 130650Z AUTO 28019KT 9999 // FEW011/// OVC130/// 09/07 Q1016 W (280°) 21.9mph 9°C 7°C
13/01/19 05:50 EGVP 130550Z AUTO 28021KT 9999 // BKN011/// BKN220/// 10/08 Q1017 W (280°) 24.2mph 10°C 8°C
13/01/19 04:50 EGVP 130450Z AUTO 28016KT 9999 // BKN011/// SCT160/// BKN200/// 10/08 Q1018 W (280°) 18.4mph 10°C 8°C
13/01/19 03:50 EGVP 130350Z AUTO 27016KT 9999 // BKN010/// BKN170/// 10/08 Q1018 W (270°) 18.4mph 10°C 8°C
13/01/19 02:50 EGVP 130250Z AUTO 28015KT 9999 // BKN011/// BKN130/// 10/08 Q1019 W (280°) 17.3mph 10°C 8°C
13/01/19 01:50 EGVP 130150Z AUTO 28014KT 9999 // SCT012/// BKN150/// 10/08 Q1019 W (280°) 16.1mph 10°C 8°C
13/01/19 00:50 EGVP 130050Z AUTO 28015KT 9999 // BKN140/// BKN210/// 09/07 Q1020 W (280°) 17.3mph 9°C 7°C
12/01/19 23:50 EGVP 122350Z AUTO 28014KT 9999 // OVC150/// 09/07 Q1020 W (280°) 16.1mph 9°C 7°C
12/01/19 22:50 EGVP 122250Z AUTO 28013KT 9999 // OVC140/// 09/07 Q1021 W (280°) 15.0mph 9°C 7°C
12/01/19 21:50 EGVP 122150Z AUTO 28012KT 9999 // FEW013/// BKN140/// 09/07 Q1021 W (280°) 13.8mph 9°C 7°C
12/01/19 20:50 EGVP 122050Z AUTO 29009KT 9999 // BKN013/// SCT024/// BKN130/// 09/06 Q1021 WNW (290°) 10.4mph 9°C 6°C
12/01/19 19:50 EGVP 121950Z AUTO 28011G21KT 9999 // SCT014/// BKN110/// BKN150/// 08/06 Q1021 W (280°) 12.7mph 24.2mph 8°C 6°C
12/01/19 18:50 EGVP 121850Z AUTO 28010KT 9999 // FEW110/// SCT150/// BKN190/// 08/05 Q1021 W (280°) 11.5mph 8°C 5°C
12/01/19 17:50 EGVP 121750Z AUTO 27009KT 9999 // FEW110/// BKN160/// 08/06 Q1021 W (270°) 10.4mph 8°C 6°C
12/01/19 16:50 EGVP 121650Z AUTO 28010KT 9999 // SCT090/// BKN150/// 09/06 Q1022 W (280°) 11.5mph 9°C 6°C
12/01/19 15:50 EGVP 121550Z AUTO 27010KT 9999 // BKN028/// SCT100/// BKN160/// 09/06 Q1022 W (270°) 11.5mph 9°C 6°C
12/01/19 14:50 EGVP 121450Z AUTO 29009KT 9999 // FEW027/// SCT032/// BKN140/// 10/06 Q1022 WNW (290°) 10.4mph 10°C 6°C
12/01/19 13:50 EGVP 121350Z AUTO 30008KT 9999 // FEW015/// BKN150/// 10/07 Q1022 WNW (300°) 9.2mph 10°C 7°C
12/01/19 12:50 EGVP 121250Z AUTO 28009KT 9999 // BKN013/// 10/08 Q1023 W (280°) 10.4mph 10°C 8°C
12/01/19 11:50 EGVP 121150Z AUTO 26009KT 9999 // BKN009/// BKN018/// 09/08 Q1023 W (260°) 10.4mph 9°C 8°C
12/01/19 10:50 EGVP 121050Z AUTO 24009KT 9999 // BKN007/// 08/07 Q1024 WSW (240°) 10.4mph 8°C 7°C
12/01/19 09:50 EGVP 120950Z AUTO 27012KT 9999 // SCT010/// BKN033/// 09/07 Q1025 W (270°) 13.8mph 9°C 7°C
12/01/19 08:50 EGVP 120850Z AUTO 27011KT 9999 // OVC012/// 08/07 Q1025 W (270°) 12.7mph 8°C 7°C
12/01/19 07:50 EGVP 120750Z AUTO 27011KT 9999 // OVC011/// 09/07 Q1025 W (270°) 12.7mph 9°C 7°C
12/01/19 06:50 EGVP 120650Z AUTO 28014KT 9999 // OVC011/// 09/07 Q1025 W (280°) 16.1mph 9°C 7°C
12/01/19 05:50 EGVP 120550Z AUTO 26009KT 9999 // BKN012/// 08/06 Q1026 W (260°) 10.4mph 8°C 6°C
12/01/19 04:50 EGVP 120450Z AUTO 24007KT 9999 // SCT010/// BKN015/// 08/06 Q1026 WSW (240°) 8.1mph 8°C 6°C
12/01/19 03:50 EGVP 120350Z AUTO 24005KT 9999 // SCT015/// BKN021/// 07/05 Q1027 WSW (240°) 5.8mph 7°C 5°C
12/01/19 02:50 EGVP 120250Z AUTO 26006KT 9999 // SCT023/// OVC027/// 07/05 Q1028 W (260°) 6.9mph 7°C 5°C
12/01/19 01:50 EGVP 120150Z AUTO 25006KT 9999 // OVC030/// 07/05 Q1028 WSW (250°) 6.9mph 7°C 5°C
12/01/19 00:50 EGVP 120050Z AUTO 23005KT 9999 // OVC033/// 07/04 Q1029 SW (230°) 5.8mph 7°C 4°C
11/01/19 23:50 EGVP 112350Z AUTO 26006KT 9999 // OVC031/// 07/03 Q1030 W (260°) 6.9mph 7°C 3°C
11/01/19 22:50 EGVP 112250Z AUTO 27005KT 9999 // OVC030/// 07/04 Q1030 W (270°) 5.8mph 7°C 4°C
11/01/19 21:50 EGVP 112150Z AUTO 27006KT 9999 // OVC033/// 07/04 Q1030 W (270°) 6.9mph 7°C 4°C
11/01/19 20:50 EGVP 112050Z AUTO 28006KT 9999 // OVC030/// 07/04 Q1031 W (280°) 6.9mph 7°C 4°C
11/01/19 19:50 EGVP 111950Z AUTO 29004KT 9999 // OVC027/// 07/04 Q1031 WNW (290°) 4.6mph 7°C 4°C
11/01/19 18:50 EGVP 111850Z AUTO 30005KT 9999 // OVC027/// 07/04 Q1031 WNW (300°) 5.8mph 7°C 4°C
11/01/19 17:50 EGVP 111750Z AUTO 31005KT 9999 // BKN024/// 07/04 Q1031 NW (310°) 5.8mph 7°C 4°C
11/01/19 16:50 EGVP 111650Z AUTO 31004KT 9999 // BKN030/// BKN230/// 07/04 Q1031 NW (310°) 4.6mph 7°C 4°C
11/01/19 15:50 EGVP 111550Z 33006KT 9999 FEW018 BKN250 07/04 Q1031 BLU TEMPO BKN018 WHT NNW (330°) 6.9mph 7°C 4°C
11/01/19 14:50 EGVP 111450Z 32008KT 9999 FEW019 BKN210 08/04 Q1031 BLU NOSIG NW (320°) 9.2mph 8°C 4°C
11/01/19 13:50 EGVP 111350Z 34007KT 9999 FEW016 SCT200 BKN250 08/04 Q1030 BLU NOSIG NNW (340°) 8.1mph 8°C 4°C
11/01/19 12:50 EGVP 111250Z 34009KT 9999 FEW015 BKN210 08/05 Q1031 BLU NOSIG NNW (340°) 10.4mph 8°C 5°C
11/01/19 11:50 EGVP 111150Z 32006KT 9999 FEW012 SCT050 BKN250 08/05 Q1031 BLU NOSIG NW (320°) 6.9mph 8°C 5°C
11/01/19 10:50 EGVP 111050Z 33005KT 9999 FEW010 BKN048 BKN055 07/05 Q1031 BLU NOSIG NNW (330°) 5.8mph 7°C 5°C
11/01/19 09:50 EGVP 110950Z 34005KT 9999 FEW034 SCT039 BKN045 07/04 Q1031 BLU NOSIG NNW (340°) 5.8mph 7°C 4°C
11/01/19 08:50 EGVP 110850Z 33005KT 9999 FEW038 SCT042 BKN050 06/04 Q1030 BLU NOSIG NNW (330°) 5.8mph 6°C 4°C
11/01/19 07:50 EGVP 110750Z 33005KT 9999 FEW036 SCT042 BKN050 06/04 Q1030 BLU NOSIG NNW (330°) 5.8mph 6°C 4°C
11/01/19 06:50 EGVP 110650Z 34006KT 9999 FEW037 BKN050 06/04 Q1029 BLU NNW (340°) 6.9mph 6°C 4°C
11/01/19 05:50 EGVP 110550Z 34006KT CAVOK 06/04 Q1029 BLU NNW (340°) 6.9mph 6°C 4°C
11/01/19 04:50 EGVP 110450Z AUTO 34008KT 9999 // BKN050/// 07/04 Q1029 NNW (340°) 9.2mph 7°C 4°C
11/01/19 03:50 EGVP 110350Z AUTO 32008KT 9999 // OVC043/// 06/04 Q1029 NW (320°) 9.2mph 6°C 4°C
11/01/19 02:50 EGVP 110250Z AUTO 31007KT 9999 // OVC042/// 06/04 Q1029 NW (310°) 8.1mph 6°C 4°C
11/01/19 01:50 EGVP 110150Z AUTO 30007KT 9999 // OVC042/// 06/04 Q1030 WNW (300°) 8.1mph 6°C 4°C
11/01/19 00:50 EGVP 110050Z AUTO 29006KT 9999 // BKN048/// 06/04 Q1030 WNW (290°) 6.9mph 6°C 4°C
10/01/19 23:50 EGVP 102350Z AUTO 32006KT 9999 // FEW035/// BKN050/// 07/04 Q1030 NW (320°) 6.9mph 7°C 4°C
10/01/19 22:50 EGVP 102250Z AUTO 33006KT 9999 // FEW033/// SCT040/// BKN050/// 07/05 Q1030 NNW (330°) 6.9mph 7°C 5°C
10/01/19 21:50 EGVP 102150Z AUTO 34007KT 9000 // FEW006/// OVC050/// 07/06 Q1030 NNW (340°) 8.1mph 7°C 6°C
10/01/19 20:50 EGVP 102050Z AUTO 33008KT 6000 // OVC005/// 06/05 Q1030 NNW (330°) 9.2mph 6°C 5°C
10/01/19 19:50 EGVP 101950Z AUTO 30003KT 7000 // OVC006/// 05/04 Q1030 WNW (300°) 3.5mph 5°C 4°C
10/01/19 18:50 EGVP 101850Z 29005KT 9999 FEW006 OVC007 05/04 Q1030 GRN TEMPO SCT006 YLO1 WNW (290°) 5.8mph 5°C 4°C
10/01/19 18:21 EGVP 101821Z 31005KT 9999 SCT006 OVC007 05/03 Q1030 YLO1 TEMPO BKN007 GRN NW (310°) 5.8mph 5°C 3°C
10/01/19 16:50 EGVP 101650Z 31006KT 9999 BKN008 04/02 Q1030 GRN NOSIG NW (310°) 6.9mph 4°C 2°C
10/01/19 15:50 EGVP 101550Z 30006KT 9999 OVC010 04/01 Q1030 GRN NOSIG WNW (300°) 6.9mph 4°C 1°C
10/01/19 14:50 EGVP 101450Z 31005KT 9999 BKN012 04/01 Q1030 GRN NOSIG NW (310°) 5.8mph 4°C 1°C
10/01/19 14:41 EGVP 101441Z 31006KT 9999 BKN013 04/00 Q1030 GRN NOSIG NW (310°) 6.9mph 4°C 0°C
10/01/19 13:50 EGVP 101350Z 31006KT 9999 BKN016 04/00 Q1030 WHT BECMG BKN012 GRN NW (310°) 6.9mph 4°C 0°C
10/01/19 12:50 EGVP 101250Z 32006KT 9999 BKN018 04/00 Q1030 WHT BECMG BKN014 GRN NW (320°) 6.9mph 4°C 0°C
10/01/19 12:39 EGVP 101239Z 31005KT 9999 SCT018 SCT045 04/M00 Q1031 WHT BECMG BKN014 GRN NW (310°) 5.8mph 4°C 0°C
10/01/19 11:50 EGVP 101150Z 31007KT 9999 SCT045 BKN075 03/M00 Q1031 BLU NOSIG NW (310°) 8.1mph 3°C 0°C
10/01/19 10:50 EGVP 101050Z 31004KT 9999 BKN048 BKN090 01/M00 Q1031 BLU NOSIG NW (310°) 4.6mph 1°C 0°C
10/01/19 09:50 EGVP 100950Z 30005KT 8000 HZ FEW060 BKN090 00/M01 Q1031 BLU NOSIG HZ WNW (300°) 5.8mph 0°C -1°C
10/01/19 08:50 EGVP 100850Z 30004KT 8000 HZ BKN060 BKN190 M00/M01 Q1031 BLU NOSIG HZ WNW (300°) 4.6mph 0°C -1°C
10/01/19 07:50 EGVP 100750Z 28005KT 7000 HZ FEW060 BKN180 BKN250 M01/M02 Q1031 WHT BECMG 9999 NSW BLU HZ W (280°) 5.8mph -1°C -2°C
10/01/19 06:50 EGVP 100650Z 29002KT 7000 HZ FEW160 BKN200 M01/M02 Q1031 WHT HZ WNW (290°) 2.3mph -1°C -2°C